createdAt,value
2022-11-30T00:01:30.990Z,9.37
2022-11-30T00:03:58.545Z,10.40
2022-11-30T00:06:26.147Z,10.60
2022-11-30T00:08:55.507Z,10.63
2022-11-30T00:11:25.566Z,10.37
2022-11-30T00:13:53.263Z,11.27
2022-11-30T00:16:21.196Z,10.50
2022-11-30T00:18:48.929Z,9.73
2022-11-30T00:21:16.479Z,10.00
2022-11-30T00:23:45.721Z,10.50
2022-11-30T00:26:16.715Z,10.93
2022-11-30T00:28:45.998Z,9.73
2022-11-30T00:31:16.557Z,11.30
2022-11-30T00:33:44.874Z,10.37
2022-11-30T00:36:15.934Z,10.73
2022-11-30T00:38:44.486Z,11.03
2022-11-30T00:41:14.780Z,10.07
2022-11-30T00:43:42.486Z,10.80
2022-11-30T00:46:10.751Z,12.13
2022-11-30T00:48:39.519Z,10.33
2022-11-30T00:51:08.358Z,11.03
2022-11-30T00:53:36.125Z,10.20
2022-11-30T00:56:04.264Z,11.37
2022-11-30T00:58:31.728Z,11.07
2022-11-30T01:01:01.530Z,11.07
2022-11-30T01:03:29.345Z,11.70
2022-11-30T01:06:02.832Z,11.40
2022-11-30T01:08:30.473Z,12.07
2022-11-30T01:11:05.976Z,11.90
2022-11-30T01:13:33.539Z,10.63
2022-11-30T01:16:01.228Z,10.63
2022-11-30T01:18:28.784Z,11.60
2022-11-30T01:20:56.329Z,10.97
2022-11-30T01:23:23.812Z,11.40
2022-11-30T01:25:55.651Z,12.07
2022-11-30T01:28:23.240Z,11.20
2022-11-30T01:31:08.249Z,11.70
2022-11-30T01:33:36.328Z,11.57
2022-11-30T01:36:12.302Z,12.17
2022-11-30T01:38:51.111Z,11.50
2022-11-30T01:41:31.678Z,12.17
2022-11-30T01:44:05.079Z,12.03
2022-11-30T01:47:10.256Z,11.87
2022-11-30T01:49:51.758Z,11.93
2022-11-30T01:52:19.260Z,11.60
2022-11-30T01:54:54.428Z,10.67
2022-11-30T01:57:24.928Z,12.43
2022-11-30T01:59:54.915Z,9.70
2022-11-30T02:02:32.183Z,11.07
2022-11-30T02:05:00.601Z,12.18
2022-11-30T02:07:28.384Z,10.90
2022-11-30T02:09:56.006Z,11.20
2022-11-30T02:13:01.706Z,13.30
2022-11-30T02:16:07.514Z,11.77
2022-11-30T02:18:41.130Z,12.10
2022-11-30T02:21:33.269Z,11.33
2022-11-30T02:24:23.310Z,13.43
2022-11-30T02:27:02.859Z,12.63
2022-11-30T02:29:35.120Z,11.47
2022-11-30T02:32:08.115Z,11.20
2022-11-30T02:34:38.234Z,11.90
2022-11-30T02:37:08.060Z,12.10
2022-11-30T02:39:35.729Z,10.90
2022-11-30T02:42:03.420Z,10.87
2022-11-30T02:44:31.495Z,11.27
2022-11-30T02:47:05.019Z,10.63
2022-11-30T02:49:38.475Z,11.13
2022-11-30T02:52:08.190Z,10.13
2022-11-30T02:54:35.827Z,11.20
2022-11-30T02:57:03.385Z,12.90
2022-11-30T02:59:31.020Z,11.57
2022-11-30T03:01:58.597Z,11.70
2022-11-30T03:04:26.205Z,10.10
2022-11-30T03:06:53.686Z,11.80
2022-11-30T03:09:21.247Z,11.33
2022-11-30T03:11:48.748Z,11.60
2022-11-30T03:14:16.203Z,11.37
2022-11-30T03:16:44.342Z,11.40
2022-11-30T03:19:12.692Z,12.00
2022-11-30T03:21:40.226Z,12.00
2022-11-30T03:24:08.106Z,13.53
2022-11-30T03:26:35.747Z,12.23
2022-11-30T03:29:03.506Z,11.67
2022-11-30T03:31:31.094Z,10.63
2022-11-30T03:33:58.700Z,13.03
2022-11-30T03:36:26.310Z,12.73
2022-11-30T03:38:53.739Z,12.10
2022-11-30T03:41:21.319Z,12.40
2022-11-30T03:43:49.891Z,11.37
2022-11-30T03:46:17.918Z,11.67
2022-11-30T03:48:45.618Z,11.80
2022-11-30T03:51:14.403Z,10.80
2022-11-30T03:53:42.395Z,11.53
2022-11-30T03:56:11.791Z,11.53
2022-11-30T03:58:39.344Z,10.53
2022-11-30T04:01:13.412Z,10.60
2022-11-30T04:03:41.695Z,11.57
2022-11-30T04:06:10.672Z,10.40
2022-11-30T04:08:39.052Z,10.67
2022-11-30T04:11:07.685Z,11.10
2022-11-30T04:13:37.271Z,11.07
2022-11-30T04:16:06.604Z,11.10
2022-11-30T04:18:36.574Z,11.60
2022-11-30T04:21:05.172Z,10.27
2022-11-30T04:23:35.550Z,12.00
2022-11-30T04:26:08.588Z,11.20
2022-11-30T04:28:36.440Z,10.80
2022-11-30T04:31:04.717Z,10.73
2022-11-30T04:33:32.439Z,11.27
2022-11-30T04:36:02.811Z,10.47
2022-11-30T04:38:31.374Z,10.40
2022-11-30T04:40:58.977Z,11.87
2022-11-30T04:43:27.635Z,11.60
2022-11-30T04:45:55.075Z,11.57
2022-11-30T04:48:22.586Z,11.33
2022-11-30T04:50:50.093Z,12.67
2022-11-30T04:53:17.616Z,11.40
2022-11-30T04:55:45.148Z,10.30
2022-11-30T04:58:12.624Z,9.73
2022-11-30T05:00:40.250Z,11.27
2022-11-30T05:03:08.067Z,9.97
2022-11-30T05:05:35.737Z,9.77
2022-11-30T05:08:03.318Z,11.27
2022-11-30T05:10:33.898Z,11.23
2022-11-30T05:13:01.725Z,10.60
2022-11-30T05:15:29.398Z,10.20
2022-11-30T05:18:01.337Z,9.83
2022-11-30T05:20:29.541Z,9.63
2022-11-30T05:22:57.899Z,11.07
2022-11-30T05:25:25.485Z,10.43
2022-11-30T05:27:53.096Z,10.97
2022-11-30T05:30:20.716Z,10.80
2022-11-30T05:32:48.334Z,10.70
2022-11-30T05:35:16.006Z,10.90
2022-11-30T05:37:43.475Z,10.63
2022-11-30T05:40:11.268Z,11.90
2022-11-30T05:42:41.314Z,11.20
2022-11-30T05:45:11.768Z,11.83
2022-11-30T05:47:39.323Z,10.70
2022-11-30T05:50:07.542Z,12.27
2022-11-30T05:52:35.157Z,11.87
2022-11-30T05:55:02.590Z,10.93
2022-11-30T05:57:30.763Z,11.97
2022-11-30T05:59:58.219Z,11.17
2022-11-30T06:02:28.340Z,12.97
2022-11-30T06:04:56.239Z,12.37
2022-11-30T06:07:23.785Z,11.60
2022-11-30T06:09:51.470Z,11.10
2022-11-30T06:12:18.941Z,12.97
2022-11-30T06:14:49.153Z,10.47
2022-11-30T06:17:17.374Z,11.17
2022-11-30T06:19:44.879Z,10.87
2022-11-30T06:22:12.422Z,11.77
2022-11-30T06:24:39.927Z,12.80
2022-11-30T06:27:07.364Z,9.40
2022-11-30T06:29:35.255Z,11.20
2022-11-30T06:32:02.896Z,11.30
2022-11-30T06:34:32.391Z,12.13
2022-11-30T06:36:59.900Z,11.13
2022-11-30T06:39:57.896Z,10.80
2022-11-30T06:42:15.001Z,10.57
2022-11-30T06:44:42.522Z,10.17
2022-11-30T06:47:10.053Z,11.10
2022-11-30T06:49:37.745Z,10.57
2022-11-30T06:52:05.391Z,10.23
2022-11-30T06:54:32.836Z,10.53
2022-11-30T06:57:01.407Z,10.17
2022-11-30T06:59:29.501Z,10.23
2022-11-30T07:01:57.133Z,11.00
2022-11-30T07:04:24.712Z,11.13
2022-11-30T07:06:52.279Z,10.13
2022-11-30T07:09:19.918Z,10.07
2022-11-30T07:11:47.391Z,11.30
2022-11-30T07:14:14.959Z,9.90
2022-11-30T07:16:42.435Z,11.10
2022-11-30T07:19:09.957Z,11.27
2022-11-30T07:21:37.407Z,10.23
2022-11-30T07:24:23.575Z,9.37
2022-11-30T07:26:51.163Z,10.57
2022-11-30T07:29:26.090Z,10.63
2022-11-30T07:31:54.725Z,9.90
2022-11-30T07:34:22.928Z,10.97
2022-11-30T07:36:50.335Z,10.97
2022-11-30T07:39:17.790Z,10.83
2022-11-30T07:41:45.263Z,10.83
2022-11-30T07:44:12.706Z,10.77
2022-11-30T07:46:40.175Z,11.17
2022-11-30T07:49:09.669Z,10.03
2022-11-30T07:51:37.782Z,11.20
2022-11-30T07:54:05.504Z,12.27
2022-11-30T07:56:33.220Z,11.70
2022-11-30T07:59:02.000Z,10.97
2022-11-30T08:01:32.460Z,12.33
2022-11-30T08:04:00.478Z,12.10
2022-11-30T08:06:30.657Z,12.03
2022-11-30T08:09:01.313Z,12.67
2022-11-30T08:11:31.193Z,10.73
2022-11-30T08:13:58.985Z,12.57
2022-11-30T08:16:28.694Z,12.30
2022-11-30T08:18:57.049Z,13.00
2022-11-30T08:21:25.096Z,11.57
2022-11-30T08:23:56.533Z,12.20
2022-11-30T08:26:27.695Z,12.20
2022-11-30T08:28:55.678Z,12.37
2022-11-30T08:31:31.675Z,13.60
2022-11-30T08:34:07.603Z,13.47
2022-11-30T08:36:35.264Z,14.47
2022-11-30T08:39:05.233Z,15.33
2022-11-30T08:41:34.950Z,12.87
2022-11-30T08:44:02.455Z,13.27
2022-11-30T08:49:22.536Z,13.40
2022-11-30T08:52:17.022Z,13.13
2022-11-30T08:54:46.405Z,14.60
2022-11-30T08:57:19.705Z,13.47
2022-11-30T08:59:47.829Z,12.47
2022-11-30T09:02:18.231Z,12.27
2022-11-30T09:04:49.294Z,10.73
2022-11-30T09:07:17.883Z,11.30
2022-11-30T09:09:45.819Z,11.30
2022-11-30T09:12:15.840Z,11.47
2022-11-30T09:14:45.193Z,11.73
2022-11-30T09:17:12.925Z,11.73
2022-11-30T09:19:40.446Z,12.17
2022-11-30T09:22:08.009Z,11.87
2022-11-30T09:24:35.604Z,12.43
2022-11-30T09:27:03.065Z,12.00
2022-11-30T09:29:30.606Z,12.43
2022-11-30T09:31:58.336Z,13.07
2022-11-30T09:34:26.103Z,14.10
2022-11-30T09:36:53.618Z,13.80
2022-11-30T09:39:21.184Z,14.47
2022-11-30T09:42:07.079Z,14.73
2022-11-30T09:44:43.577Z,15.07
2022-11-30T09:47:45.271Z,13.90
2022-11-30T09:50:20.655Z,15.40
2022-11-30T09:53:01.409Z,14.83
2022-11-30T09:55:34.013Z,15.97
2022-11-30T09:58:05.687Z,15.03
2022-11-30T10:00:34.984Z,13.97
2022-11-30T10:03:06.161Z,15.30
2022-11-30T10:05:51.464Z,14.83
2022-11-30T10:08:33.573Z,16.27
2022-11-30T10:11:25.628Z,16.90
2022-11-30T10:14:00.863Z,16.77
2022-11-30T10:16:47.205Z,15.90
2022-11-30T10:19:33.463Z,14.97
2022-11-30T10:22:13.216Z,13.63
2022-11-30T10:25:18.241Z,15.27
2022-11-30T10:28:38.589Z,14.97
2022-11-30T10:31:01.604Z,15.47
2022-11-30T10:33:38.785Z,15.37
2022-11-30T10:36:30.301Z,15.77
2022-11-30T10:39:02.296Z,15.70
2022-11-30T10:41:48.520Z,16.33
2022-11-30T10:44:27.124Z,15.70
2022-11-30T10:47:15.673Z,15.47
2022-11-30T10:49:48.830Z,18.20
2022-11-30T10:52:27.275Z,16.47
2022-11-30T10:55:02.205Z,14.97
2022-11-30T10:57:33.249Z,13.98
2022-11-30T11:00:05.801Z,17.00
2022-11-30T11:02:50.417Z,17.10
2022-11-30T11:05:18.217Z,15.33
2022-11-30T11:08:19.656Z,16.63
2022-11-30T11:10:52.215Z,16.00
2022-11-30T11:13:41.477Z,17.33
2022-11-30T11:16:11.693Z,16.33
2022-11-30T11:18:57.928Z,16.53
2022-11-30T11:21:25.482Z,16.57
2022-11-30T11:23:55.976Z,16.17
2022-11-30T11:26:28.641Z,16.77
2022-11-30T11:28:59.680Z,15.60
2022-11-30T11:31:42.353Z,17.50
2022-11-30T11:34:31.823Z,16.27
2022-11-30T11:37:20.384Z,16.03
2022-11-30T11:40:09.567Z,17.20
2022-11-30T11:42:45.523Z,16.77
2022-11-30T11:45:20.158Z,14.57
2022-11-30T11:48:11.772Z,16.00
2022-11-30T11:53:46.073Z,15.20
2022-11-30T11:56:29.407Z,18.33
2022-11-30T11:59:01.814Z,16.33
2022-11-30T12:01:50.951Z,16.13
2022-11-30T12:04:31.958Z,15.20
2022-11-30T12:07:04.897Z,13.57
2022-11-30T12:09:39.713Z,15.47
2022-11-30T12:12:13.310Z,16.07
2022-11-30T12:14:40.852Z,13.97
2022-11-30T12:17:35.524Z,15.87
2022-11-30T12:20:18.378Z,13.40
2022-11-30T12:22:54.816Z,15.20
2022-11-30T12:25:50.150Z,16.57
2022-11-30T12:28:28.114Z,14.87
2022-11-30T12:31:15.682Z,14.10
2022-11-30T12:33:57.298Z,14.75
2022-11-30T12:36:39.646Z,13.87
2022-11-30T12:39:16.270Z,13.63
2022-11-30T12:42:03.243Z,14.47
2022-11-30T12:44:45.527Z,14.27
2022-11-30T12:47:39.930Z,12.17
2022-11-30T12:50:40.648Z,15.47
2022-11-30T12:53:37.700Z,14.90
2022-11-30T12:56:28.308Z,13.97
2022-11-30T12:59:28.076Z,14.53
2022-11-30T13:02:17.316Z,14.83
2022-11-30T13:04:58.791Z,13.83
2022-11-30T13:07:34.816Z,12.33
2022-11-30T13:10:27.858Z,13.60
2022-11-30T13:13:02.456Z,15.27
2022-11-30T13:15:34.331Z,15.43
2022-11-30T13:18:03.501Z,14.90
2022-11-30T13:20:46.821Z,14.90
2022-11-30T13:23:21.310Z,14.70
2022-11-30T13:26:11.743Z,17.50
2022-11-30T13:28:42.282Z,16.60
2022-11-30T13:31:21.950Z,16.17
2022-11-30T13:33:58.375Z,16.60
2022-11-30T13:36:48.256Z,16.27
2022-11-30T13:39:16.517Z,15.93
2022-11-30T13:41:50.708Z,16.77
2022-11-30T13:44:34.268Z,18.47
2022-11-30T13:47:04.642Z,17.50
2022-11-30T13:49:36.877Z,18.47
2022-11-30T13:52:23.174Z,16.63
2022-11-30T13:54:57.378Z,20.93
2022-11-30T13:57:24.871Z,18.40
2022-11-30T14:00:03.997Z,20.00
2022-11-30T14:02:32.603Z,18.60
2022-11-30T14:05:18.330Z,16.50
2022-11-30T14:08:07.090Z,19.53
2022-11-30T14:10:38.198Z,18.53
2022-11-30T14:13:29.684Z,19.80
2022-11-30T14:16:00.831Z,16.77
2022-11-30T14:18:39.933Z,17.83
2022-11-30T14:21:26.584Z,18.20
2022-11-30T14:23:59.731Z,17.17
2022-11-30T14:26:44.062Z,17.40
2022-11-30T14:29:27.670Z,17.03
2022-11-30T14:32:28.540Z,17.10
2022-11-30T14:35:05.902Z,15.43
2022-11-30T14:37:40.919Z,16.25
2022-11-30T14:40:18.460Z,15.90
2022-11-30T14:42:51.699Z,13.43
2022-11-30T14:45:21.794Z,15.30
2022-11-30T14:47:55.818Z,14.80
2022-11-30T14:50:26.109Z,15.80
2022-11-30T14:53:13.360Z,15.50
2022-11-30T14:55:46.551Z,15.15
2022-11-30T14:58:45.568Z,14.83
2022-11-30T15:01:43.125Z,15.80
2022-11-30T15:04:20.723Z,14.68
2022-11-30T15:06:53.001Z,14.20
2022-11-30T15:09:30.935Z,14.77
2022-11-30T15:12:00.337Z,16.23
2022-11-30T15:14:31.406Z,15.43
2022-11-30T15:17:00.460Z,15.57
2022-11-30T15:19:35.386Z,15.73
2022-11-30T15:22:03.238Z,16.30
2022-11-30T15:24:30.781Z,15.00
2022-11-30T15:27:10.975Z,15.43
2022-11-30T15:29:57.715Z,15.57
2022-11-30T15:32:26.273Z,15.97
2022-11-30T15:35:00.943Z,14.67
2022-11-30T15:37:33.826Z,15.90
2022-11-30T15:40:03.457Z,15.90
2022-11-30T15:42:44.098Z,14.70
2022-11-30T15:45:30.473Z,14.33
2022-11-30T15:48:00.315Z,15.87
2022-11-30T15:50:31.174Z,14.83
2022-11-30T15:53:01.172Z,14.87
2022-11-30T15:55:48.720Z,13.20
2022-11-30T15:58:46.101Z,15.52
2022-11-30T16:01:20.801Z,14.50
2022-11-30T16:04:02.368Z,16.13
2022-11-30T16:06:32.713Z,15.50
2022-11-30T16:09:19.301Z,13.63
2022-11-30T16:11:50.379Z,13.47
2022-11-30T16:14:18.179Z,14.07
2022-11-30T16:16:46.340Z,13.63
2022-11-30T16:19:14.031Z,14.53
2022-11-30T16:21:41.872Z,14.77
2022-11-30T16:24:16.084Z,14.60
2022-11-30T16:26:50.910Z,13.57
2022-11-30T16:29:18.969Z,15.57
2022-11-30T16:31:46.586Z,13.73
2022-11-30T16:34:14.293Z,15.13
2022-11-30T16:36:41.782Z,15.20
2022-11-30T16:39:12.375Z,13.20
2022-11-30T16:41:43.395Z,12.70
2022-11-30T16:44:14.677Z,13.00
2022-11-30T16:46:42.323Z,14.23
2022-11-30T16:49:09.964Z,13.93
2022-11-30T16:51:37.630Z,13.93
2022-11-30T16:54:05.402Z,14.37
2022-11-30T16:56:33.406Z,13.87
2022-11-30T16:59:01.064Z,14.83
2022-11-30T17:01:35.538Z,14.27
2022-11-30T17:04:21.514Z,14.60
2022-11-30T17:06:51.304Z,13.90
2022-11-30T17:09:21.479Z,14.60
2022-11-30T17:11:50.922Z,14.73
2022-11-30T17:14:19.858Z,15.60
2022-11-30T17:16:47.672Z,17.63
2022-11-30T17:19:15.348Z,14.40
2022-11-30T17:21:44.801Z,13.77
2022-11-30T17:24:13.294Z,14.60
2022-11-30T17:26:40.893Z,13.83
2022-11-30T17:29:08.485Z,13.60
2022-11-30T17:31:36.987Z,14.57
2022-11-30T17:34:04.478Z,15.03
2022-11-30T17:36:32.097Z,16.63
2022-11-30T17:38:59.692Z,16.00
2022-11-30T17:41:27.173Z,17.43
2022-11-30T17:43:54.867Z,16.40
2022-11-30T17:46:22.676Z,14.30
2022-11-30T17:48:50.573Z,15.40
2022-11-30T17:51:18.098Z,15.50
2022-11-30T17:53:48.074Z,14.93
2022-11-30T17:56:17.508Z,17.53
2022-11-30T17:58:46.298Z,15.63
2022-11-30T18:01:30.135Z,14.80
2022-11-30T18:03:59.116Z,16.57
2022-11-30T18:06:26.902Z,17.07
2022-11-30T18:08:54.471Z,16.10
2022-11-30T18:11:24.012Z,16.50
2022-11-30T18:13:54.446Z,17.13
2022-11-30T18:16:27.730Z,17.07
2022-11-30T18:18:57.480Z,15.07
2022-11-30T18:21:28.383Z,17.30
2022-11-30T18:23:57.838Z,15.90
2022-11-30T18:26:26.833Z,16.30
2022-11-30T18:28:56.768Z,15.80
2022-11-30T18:31:24.975Z,15.93
2022-11-30T18:33:56.606Z,15.47
2022-11-30T18:36:24.580Z,15.47
2022-11-30T18:38:52.156Z,17.00
2022-11-30T18:41:20.120Z,15.83
2022-11-30T18:43:47.743Z,15.87
2022-11-30T18:46:15.362Z,16.57
2022-11-30T18:48:43.110Z,16.23
2022-11-30T18:51:22.976Z,14.90
2022-11-30T18:53:57.717Z,15.13
2022-11-30T18:56:27.103Z,16.37
2022-11-30T18:59:06.662Z,16.60
2022-11-30T19:01:35.712Z,16.17
2022-11-30T19:04:06.003Z,17.03
2022-11-30T19:06:34.658Z,16.43
2022-11-30T19:09:05.839Z,18.17
2022-11-30T19:11:33.884Z,16.50
2022-11-30T19:14:02.089Z,15.93
2022-11-30T19:16:31.378Z,17.27
2022-11-30T19:19:02.164Z,16.43
2022-11-30T19:21:29.733Z,17.20
2022-11-30T19:23:57.588Z,16.30
2022-11-30T19:26:28.006Z,18.33
2022-11-30T19:28:57.152Z,15.97
2022-11-30T19:31:25.504Z,16.43
2022-11-30T19:33:55.850Z,16.63
2022-11-30T19:36:26.183Z,16.67
2022-11-30T19:38:54.818Z,15.93
2022-11-30T19:41:22.607Z,15.20
2022-11-30T19:44:04.110Z,15.70
2022-11-30T19:46:34.726Z,16.50
2022-11-30T19:49:02.566Z,15.53
2022-11-30T19:51:31.294Z,15.33
2022-11-30T19:54:01.924Z,16.37
2022-11-30T19:56:32.346Z,15.00
2022-11-30T19:59:05.059Z,16.70
2022-11-30T20:01:34.509Z,14.97
2022-11-30T20:04:03.230Z,14.87
2022-11-30T20:06:34.352Z,14.70
2022-11-30T20:09:03.823Z,14.97
2022-11-30T20:11:31.702Z,15.73
2022-11-30T20:14:00.432Z,15.63
2022-11-30T20:16:28.333Z,15.80
2022-11-30T20:19:00.897Z,15.03
2022-11-30T20:21:34.382Z,15.20
2022-11-30T20:24:06.234Z,15.13
2022-11-30T20:26:39.869Z,16.13
2022-11-30T20:29:11.960Z,15.97
2022-11-30T20:31:39.741Z,14.60
2022-11-30T20:34:08.285Z,15.20
2022-11-30T20:36:36.232Z,16.80
2022-11-30T20:39:04.792Z,17.77
2022-11-30T20:41:34.051Z,17.07
2022-11-30T20:44:01.795Z,15.73
2022-11-30T20:46:32.149Z,16.57
2022-11-30T20:49:00.752Z,17.03
2022-11-30T20:51:32.436Z,16.50
2022-11-30T20:54:02.724Z,16.17
2022-11-30T20:56:30.353Z,17.00
2022-11-30T20:59:01.646Z,17.80
2022-11-30T21:01:29.477Z,17.13
2022-11-30T21:04:01.011Z,15.90
2022-11-30T21:06:30.199Z,16.23
2022-11-30T21:08:58.842Z,16.67
2022-11-30T21:11:27.803Z,17.30
2022-11-30T21:13:56.526Z,15.97
2022-11-30T21:16:28.564Z,16.77
2022-11-30T21:18:59.090Z,15.57
2022-11-30T21:21:30.923Z,16.37
2022-11-30T21:24:00.938Z,16.27
2022-11-30T21:26:34.001Z,17.00
2022-11-30T21:29:04.853Z,16.70
2022-11-30T21:31:32.531Z,18.30
2022-11-30T21:34:00.477Z,18.73
2022-11-30T21:36:28.630Z,18.53
2022-11-30T21:39:06.356Z,16.63
2022-11-30T21:41:38.800Z,18.07
2022-11-30T21:44:10.543Z,18.43
2022-11-30T21:46:38.621Z,17.63
2022-11-30T21:49:06.959Z,17.37
2022-11-30T21:51:34.613Z,17.03
2022-11-30T21:54:07.591Z,18.30
2022-11-30T21:56:37.174Z,18.13
2022-11-30T21:59:06.760Z,18.03
2022-11-30T22:01:39.343Z,19.73
2022-11-30T22:04:08.591Z,17.33
2022-11-30T22:06:37.763Z,17.97
2022-11-30T22:09:16.690Z,18.97
2022-11-30T22:11:45.425Z,17.97
2022-11-30T22:14:16.071Z,17.83
2022-11-30T22:16:44.532Z,18.90
2022-11-30T22:19:12.051Z,19.63
2022-11-30T22:21:39.882Z,18.90
2022-11-30T22:24:11.239Z,19.20
2022-11-30T22:26:39.873Z,19.87
2022-11-30T22:29:16.573Z,18.20
2022-11-30T22:31:46.233Z,19.15
2022-11-30T22:34:14.241Z,18.37
2022-11-30T22:36:43.233Z,18.87
2022-11-30T22:39:19.730Z,20.03
2022-11-30T22:41:54.668Z,18.00
2022-11-30T22:44:24.310Z,18.70
2022-11-30T22:46:51.974Z,17.27
2022-11-30T22:49:21.544Z,18.30
2022-11-30T22:51:50.643Z,18.43
2022-11-30T22:54:18.948Z,18.63
2022-11-30T22:56:46.897Z,19.80
2022-11-30T22:59:15.357Z,19.93
2022-11-30T23:01:45.721Z,20.20
2022-11-30T23:04:16.216Z,18.87
2022-11-30T23:06:44.723Z,19.37
2022-11-30T23:09:15.276Z,19.13
2022-11-30T23:11:43.395Z,18.93
2022-11-30T23:14:12.268Z,18.80
2022-11-30T23:16:40.444Z,21.37
2022-11-30T23:19:10.607Z,17.57
2022-11-30T23:21:41.993Z,17.23
2022-11-30T23:24:14.266Z,18.23
2022-11-30T23:26:43.098Z,18.87
2022-11-30T23:29:13.773Z,19.03
2022-11-30T23:31:43.153Z,18.43
2022-11-30T23:34:16.716Z,18.90
2022-11-30T23:36:44.218Z,19.17
2022-11-30T23:39:14.781Z,17.90
2022-11-30T23:41:42.944Z,18.00
2022-11-30T23:44:11.489Z,17.73
2022-11-30T23:46:39.239Z,18.13
2022-11-30T23:49:07.142Z,18.53
2022-11-30T23:51:34.673Z,20.07
2022-11-30T23:54:02.145Z,18.67
2022-11-30T23:56:29.658Z,18.50
2022-11-30T23:58:57.096Z,17.23
